Flight Track Log - Related Links

Times and Time Zones

All times are in EDT time to prevent confusion due to time zone crossing. See the UAL4543 flight status page for this flight to view local times or setup timezone preferences in your user account.

Time Position Orientation Groundspeed Altitude Reporting Facility
EDT Latitude Longitude Course Direction KTS MPH feet Rate Location/Type
Sun 08:59:00 PM 40.7757 -74.5495 284° West  Level FlightAware
Sun 09:00:00 PM 40.7999 -74.6826 284° West  Level FlightAware
Sun 09:01:00 PM 40.8301 -74.8136 287° West  Level FlightAware
Sun 09:02:00 PM 40.8667 -74.9400 270° West  Level FlightAware
Sun 09:03:00 PM 40.8862 -75.0724 303° West  Level FlightAware
Sun 09:04:00 PM 40.9000 -75.1884 270° West  Level FlightAware
Sun 09:05:00 PM 40.8709 -75.3124 255° West  Level FlightAware
Sun 09:06:00 PM 40.8427 -75.4365 255° West  Level FlightAware
Sun 09:07:00 PM 40.8186 -75.5691 254° West  Level FlightAware
Sun 09:08:00 PM 40.7903 -75.7008 254° West  Level FlightAware
Sun 09:09:00 PM 40.7589 -75.8312 252° West  Level FlightAware
Sun 09:10:00 PM 40.7244 -75.9601 246° West  Level FlightAware
Sun 09:11:00 PM 40.6945 -76.0889 248° West  Level FlightAware
Sun 09:12:00 PM 40.6555 -76.2155 248° West  Level FlightAware
Sun 09:13:00 PM 40.6691 -76.3480 282° West  Level FlightAware
Sun 09:14:00 PM 40.6914 -76.4815 282° West  Level FlightAware
Sun 09:15:00 PM 40.7136 -76.6150 282° West  Level FlightAware
Sun 09:16:00 PM 40.7320 -76.7495 280° West  Level FlightAware
Sun 09:17:00 PM 40.7495 -76.8843 280° West  Level FlightAware
Sun 09:18:00 PM 40.7671 -77.0191 283° West  Level FlightAware
Sun 09:19:00 PM 40.7907 -77.1524 283° West  Level FlightAware
Sun 09:20:00 PM 40.8142 -77.2858 283° West  Level FlightAware
Sun 09:21:00 PM 40.8318 -77.4207 279° West  Level FlightAware
Sun 09:22:00 PM 40.8497 -77.5556 280° West  Level FlightAware
Sun 09:23:00 PM 40.8675 -77.6906 278° West  Level FlightAware
Sun 09:24:00 PM 40.8826 -77.8262 278° West  Level FlightAware
Sun 09:25:00 PM 40.8976 -77.9618 278° West  Level FlightAware
Sun 09:26:00 PM 40.9208 -78.0953 281° West  Level FlightAware
Sun 09:27:00 PM 40.9402 -78.2301 281° West  Level FlightAware
Sun 09:28:00 PM 40.9593 -78.3649 281° West  Level FlightAware
Sun 09:29:00 PM 40.9761 -78.5003 279° West  Level FlightAware
Sun 09:30:00 PM 40.9914 -78.6361 278° West  Level FlightAware
Sun 09:31:00 PM 41.0065 -78.7719 278° West  Level FlightAware
Sun 09:32:00 PM 41.0214 -78.9079 278° West  Level FlightAware
Sun 09:33:00 PM 41.0361 -79.0438 278° West  Level FlightAware
Sun 09:34:00 PM 41.0507 -79.1798 278° West  Level FlightAware
Sun 09:35:00 PM 41.0652 -79.3159 278° West  Level FlightAware
Sun 09:36:00 PM 41.0794 -79.4521 278° West  Level FlightAware
Sun 09:37:00 PM 41.0936 -79.5883 278° West  Level FlightAware
Sun 09:38:00 PM 41.1075 -79.7246 278° West  Level FlightAware
Sun 09:39:00 PM 41.1213 -79.8609 278° West  Level FlightAware
Sun 09:40:00 PM 41.1349 -79.9973 278° West  Level FlightAware
Sun 09:41:00 PM 41.1484 -80.1337 278° West  Level FlightAware
Sun 09:42:00 PM 41.1660 -80.2693 280° West  Level FlightAware
Sun 09:43:00 PM 41.1839 -80.4050 278° West  Level FlightAware
Sun 09:44:00 PM 41.1982 -80.5414 278° West  Level FlightAware
Sun 09:45:00 PM 41.2123 -80.6778 278° West  Level FlightAware
Sun 09:46:00 PM 41.2263 -80.8143 278° West  Level FlightAware
Sun 09:47:00 PM 41.2401 -80.9509 278° West  Level FlightAware
Sun 09:48:00 PM 41.2537 -81.0875 278° West  Level FlightAware
Sun 09:49:00 PM 41.2671 -81.2242 277° West  Level FlightAware
Sun 09:50:00 PM 41.2804 -81.3610 277° West  Level FlightAware
Sun 09:51:00 PM 41.2935 -81.4978 277° West  Level FlightAware
Sun 09:52:00 PM 41.3060 -81.6347 277° West  Level FlightAware
Sun 09:53:00 PM 41.3179 -81.7718 277° West  Level FlightAware
Sun 09:54:00 PM 41.3297 -81.9089 277° West  Level FlightAware
Sun 09:55:00 PM 41.3413 -82.0460 276° West  Level FlightAware
Sun 09:56:00 PM 41.3525 -82.1832 276° West  Level FlightAware
Sun 09:57:00 PM 41.3629 -82.3206 276° West  Level FlightAware
Sun 09:58:00 PM 41.3730 -82.4580 276° West  Level FlightAware
Sun 09:59:00 PM 41.3830 -82.5955 276° West  Level FlightAware
Sun 10:00:00 PM 41.3834 -82.7336 274° West  Level FlightAware
Sun 10:01:00 PM 41.3913 -82.8713 274° West  Level FlightAware
Sun 10:02:00 PM 41.3992 -83.0091 274° West  Level FlightAware
Sun 10:03:00 PM 41.4068 -83.1468 274° West  Level FlightAware
Sun 10:04:00 PM 41.4143 -83.2847 274° West  Level FlightAware
Sun 10:05:00 PM 41.4216 -83.4225 274° West  Level FlightAware
Sun 10:06:00 PM 41.4288 -83.5604 274° West  Level FlightAware
Sun 10:07:00 PM 41.4350 -83.6983 273° West  Level FlightAware
Sun 10:08:00 PM 41.4398 -83.8364 273° West  Level FlightAware
Sun 10:09:00 PM 41.4444 -83.9745 273° West  Level FlightAware
Sun 10:10:00 PM 41.4488 -84.1127 272° West  Level FlightAware
Sun 10:11:00 PM 41.4536 -84.2508 273° West  Level FlightAware
Sun 10:12:00 PM 41.4585 -84.3889 273° West  Level FlightAware
Sun 10:13:00 PM 41.4632 -84.5270 273° West  Level FlightAware
Sun 10:14:00 PM 41.4719 -84.6645 283° West  Level FlightAware
Sun 10:15:00 PM 41.4855 -84.8010 272° West  Level FlightAware
Sun 10:16:00 PM 41.4897 -84.9393 272° West  Level FlightAware
Sun 10:17:00 PM 41.4937 -85.0775 272° West  Level FlightAware
Sun 10:18:00 PM 41.4975 -85.2158 272° West  Level FlightAware
Sun 10:19:00 PM 41.5012 -85.3541 272° West  Level FlightAware
Sun 10:20:00 PM 41.5048 -85.4923 272° West  Level FlightAware
Sun 10:21:00 PM 41.5081 -85.6307 272° West  Level FlightAware
Sun 10:22:00 PM 41.5113 -85.7690 272° West  Level FlightAware
Sun 10:23:00 PM 41.5144 -85.9073 272° West  Level FlightAware
Sun 10:24:00 PM 41.5167 -86.0457 270° West  Level FlightAware
Sun 10:25:00 PM 41.5167 -86.1841 270° West  Level FlightAware
Sun 10:26:00 PM 41.5192 -86.3224 272° West  Level FlightAware
Sun 10:27:00 PM 41.5224 -86.4608 272° West  Level FlightAware
Sun 10:28:00 PM 41.5255 -86.5991 272° West  Level FlightAware
Sun 10:29:00 PM 41.5283 -86.7375 272° West  Level FlightAware
Sun 10:30:00 PM 41.5311 -86.8759 272° West  Level FlightAware
Sun 10:31:00 PM 41.5333 -87.0143 270° West  Level FlightAware
Sun 10:32:00 PM 41.5334 -87.1527 270° West  Level FlightAware
Sun 10:33:00 PM 41.5337 -87.2911 270° West  Level FlightAware
Sun 10:34:00 PM 41.5342 -87.4296 270° West  Level FlightAware
Sun 10:35:00 PM 41.5345 -87.5680 270° West  Level FlightAware
Sun 10:36:00 PM 41.5347 -87.7065 270° West  Level FlightAware
Sun 10:37:00 PM 41.5346 -87.8449 270° West  Level FlightAware
Sun 10:38:00 PM 41.5345 -87.9833 270° West  Level FlightAware
Sun 10:39:00 PM 41.5341 -88.1218 270° West  Level FlightAware
Sun 10:40:00 PM 41.5336 -88.2602 270° West  Level FlightAware
Sun 10:41:00 PM 41.5335 -88.3987 270° West  Level FlightAware
Sun 10:42:00 PM 41.5337 -88.5371 270° West  Level FlightAware
Sun 10:43:00 PM 41.5337 -88.6755 270° West  Level FlightAware
Sun 10:44:00 PM 41.5335 -88.8140 270° West  Level FlightAware
Sun 10:45:00 PM 41.5334 -88.9524 270° West  Level FlightAware
Sun 10:46:00 PM 41.5335 -89.0908 270° West  Level FlightAware
Sun 10:47:00 PM 41.5335 -89.2293 270° West  Level FlightAware
Sun 10:48:00 PM 41.5335 -89.3677 270° West  Level FlightAware
Sun 10:49:00 PM 41.5340 -89.5062 270° West  Level FlightAware
Sun 10:50:00 PM 41.5343 -89.6446 270° West  Level FlightAware
Sun 10:51:00 PM 41.5345 -89.7830 270° West  Level FlightAware
Sun 10:52:00 PM 41.5345 -89.9215 270° West  Level FlightAware
Sun 10:53:00 PM 41.5343 -90.0599 270° West  Level FlightAware
Sun 10:54:00 PM 41.5340 -90.1984 270° West  Level FlightAware
Sun 10:55:00 PM 41.5335 -90.3368 270° West  Level FlightAware
Sun 10:56:00 PM 41.5333 -90.4752 270° West  Level FlightAware
Sun 10:57:00 PM 41.5334 -90.6137 270° West  Level FlightAware
Sun 10:58:00 PM 41.5332 -90.7521 265° West  Level FlightAware
Sun 10:59:00 PM 41.5247 -90.8901 265° West  Level FlightAware
Sun 11:00:00 PM 41.5167 -91.0280 270° West  Level FlightAware
Sun 11:01:00 PM 41.5167 -91.1664 270° West  Level FlightAware
Sun 11:02:00 PM 41.5167 -91.3048 270° West  Level FlightAware
Sun 11:03:00 PM 41.5167 -91.4432 270° West  Level FlightAware
Sun 11:04:00 PM 41.5167 -91.5816 270° West  Level FlightAware
Sun 11:05:00 PM 41.5167 -91.7200 270° West  Level FlightAware
Sun 11:06:00 PM 41.5167 -91.8584 270° West  Level FlightAware
Sun 11:07:00 PM 41.5167 -91.9968 270° West  Level FlightAware
Sun 11:08:00 PM 41.5170 -92.1352 270° West  Level FlightAware
Sun 11:09:00 PM 41.5171 -92.2736 270° West  Level FlightAware
Sun 11:10:00 PM 41.5171 -92.4120 270° West  Level FlightAware
Sun 11:11:00 PM 41.5168 -92.5504 270° West  Level FlightAware
Sun 11:12:00 PM 41.5167 -92.6888 270° West  Level FlightAware
Sun 11:13:00 PM 41.5167 -92.8272 270° West  Level FlightAware
Sun 11:14:00 PM 41.5225 -92.9653 275° West  Level FlightAware
Sun 11:15:00 PM 41.5306 -93.1033 275° West  Level FlightAware
Sun 11:16:00 PM 41.5334 -93.2416 270° West  Level FlightAware
Sun 11:17:00 PM 41.5333 -93.3801 270° West  Level FlightAware
Sun 11:18:00 PM 41.5334 -93.5185 270° West  Level FlightAware
Sun 11:19:00 PM 41.5333 -93.6500 270° West  Level FlightAware
Sun 11:20:00 PM 41.5340 -93.6631 270° West  Level Estimated
Sun 11:21:00 PM 41.5340 -93.6631 270° West  Level Estimated
Sun 11:22:00 PM 41.5340 -93.6631 270° West  Level Estimated
Sun 11:23:00 PM 41.5340 -93.6631 270° West  Level Estimated
Sun 11:24:00 PM 41.5340 -93.6631 270° West  Level Estimated
Sun 11:25:00 PM 41.5340 -93.6631 270° West  Level Estimated

Login

Don't have an account? Register now (free) for customized features, flight alerts, and more!